Terminal Aerodrome Forecast
Issued by NWS

Home | Current Version | Previous Version | Text Only | Print | Product List | Glossary On
Versions: 1 2 3 4 5 6 7 8 9 10 11 12 13 14 15
000
FTUS41 KBGM 230900 AAA
TAFITH
TAF AMD
KITH 230914Z 2309/2406 32012G18KT 5SM -SHRA BR OVC006
      TEMPO 2309/2313 2SM -SHRA BR OVC004
     FM231400 32018G25KT P6SM BKN020
     FM232000 32018G25KT P6SM BKN035
     FM240100 31010KT P6SM SCT030=

USA.gov is the U.S. government's official web portal to all federal, state and local government web resources and services.